Monday, September 24, 2018, 5:20 PM EDT
Back to Local

KBWI, Baltimore-washington International

Location: Glen Burnie, MD, United States Lat: 39.167
Local Time: 5:20 PM EDT (21:20 GMT) Lon: -76.683
Time Zone: US/Eastern Elev: 147 ft

Show me the last for .
Show Coded

Time T Td Feel RH Dir Speed Gust Alt SLP Vis Weather Sky Remarks
2018-09-24 16:54 65 61 - 87 80° 20 - 30.33 30.33 9 -RA OVC017 1-hr Precip Total: Trace
6-hr Precip Total (5pm): 0.00"
2018-09-24 15:54 65 61 - 87 80° 12 - 30.34 30.34 10 BKN014 OVC020 1-hr Precip Total: Trace
2018-09-24 14:54 65 63 - 93 80° 12 - 30.35 30.34 9 -RA BKN014 OVC019 1-hr Precip Total: Trace
2018-09-24 14:38 65 63 - 93 70° 12 - 30.35 - 8 -RA BKN014 OVC019 1-hr Precip Total: Trace
2018-09-24 14:37 65 63 - 93 70° 13 - 30.35 - 8 -RA BKN014 OVC019 1-hr Precip Total: Trace
2018-09-24 13:54 66 61 - 83 90° 21 - 30.35 30.35 10 BKN018 OVC026 1-hr Precip Total: Trace
6-hr Precip Total (2pm): 0.01"
6-hr Min Temp (2pm): 63.0°F
6-hr Max Temp (2pm): 66.9°F
2018-09-24 12:54 67 62 - 84 80° 18 26 30.36 30.36 10 SCT009 BKN016 OVC033 1-hr Precip Total: Trace
2018-09-24 11:54 65 62 - 90 80° 13 - 30.37 30.36 8 -DZ FEW005 SCT009 OVC016 1-hr Precip Total: Trace
2018-09-24 11:33 66 62 - 87 80° 14 - 30.36 - 6 -DZ BR FU FEW003 BKN018 OVC026 1-hr Precip Total: Trace
2018-09-24 10:54 65 61 - 87 80° 14 - 30.37 30.37 8 FEW009 OVC016 1-hr Precip Total: Trace
6-hr Precip Total (11am): 0.01"
2018-09-24 10:04 64 62 - 93 60° 10 - 30.36 - 5 BR SCT007 BKN016 OVC029 1-hr Precip Total: Trace
2018-09-24 09:54 64 62 - 93 70° 13 - 30.36 30.36 3 -DZ BR BKN007 BKN015 OVC025 1-hr Precip Total: Trace
2018-09-24 09:51 64 63 - 93 60° 12 - 30.36 - 3 -DZ BR BKN007 BKN015 OVC025 1-hr Precip Total: Trace
2018-09-24 08:54 63 62 - 96 70° 10 - 30.35 30.34 1 -DZ BR BKN006 OVC012 1-hr Precip Total: 0.01"
2018-09-24 07:54 63 62 - 96 70° 12 - 30.33 30.32 1 -DZ BR BKN007 OVC012 1-hr Precip Total: 0.01"
6-hr Precip Total (8am): 0.06"
24-hr Precip Total (8am): 0.95"
6-hr Min Temp (8am): 61.0°F
6-hr Max Temp (8am): 63.0°F
2018-09-24 07:21 63 62 - 96 70° 12 - 30.31 - 1 -DZ BR BKN007 OVC012 1-hr Precip Total: Trace
2018-09-24 07:06 62 62 - 100 70° 13 - 30.31 - 2 -DZ BR BKN009 BKN014 OVC025 1-hr Precip Total: Trace
2018-09-24 06:54 63 62 - 96 70° 12 - 30.31 30.31 3 -DZ BR SCT007 BKN014 OVC025 1-hr Precip Total: Trace
2018-09-24 06:40 62 62 - 100 70° 15 22 30.30 - 4 -DZ BR SCT007 BKN014 OVC026 1-hr Precip Total: Trace
2018-09-24 06:29 63 62 - 96 70° 12 - 30.30 - 4 BR BKN007 BKN014 OVC022 1-hr Precip Total: Trace
2018-09-24 05:54 63 62 - 96 80° 14 - 30.28 30.28 2 -RA BR BKN008 OVC016 1-hr Precip Total: 0.01"
2018-09-24 04:54 62 62 - 100 60° 8 - 30.26 30.26 4 BR OVC005 1-hr Precip Total: 0.01"
6-hr Precip Total (5am): 0.04"
2018-09-24 03:54 62 61 - 96 40° 9 - 30.26 30.26 6 BR OVC005 1-hr Precip Total: 0.01"
2018-09-24 03:01 61 61 - 100 40° 8 - 30.26 - 4 -RA BR OVC004 1-hr Precip Total: Trace
2018-09-24 02:54 61 61 - 100 40° 7 - 30.26 30.25 5 -RA BR OVC005 1-hr Precip Total: 0.02"
2018-09-24 01:54 61 60 - 96 30° 8 - 30.26 30.26 5 -DZ BR OVC006 1-hr Precip Total: 0.01"
6-hr Precip Total (2am): 0.29"
6-hr Min Temp (2am): 61.0°F
6-hr Max Temp (2am): 62.1°F
2018-09-24 00:54 61 60 - 96 40° 8 - 30.26 30.25 7 OVC007 1-hr Precip Total: Trace
24-hr Min Temp (1am): 59.0°F
24-hr Max Temp (1am): 63.0°F
2018-09-23 23:54 61 61 - 100 50° 10 - 30.25 30.25 10 -RA OVC006 1-hr Precip Total: 0.01"
2018-09-23 22:54 61 60 - 96 60° 9 - 30.25 30.25 10 -RA OVC008 1-hr Precip Total: 0.03"
6-hr Precip Total (11pm): 0.27"
2018-09-23 21:54 61 61 - 100 50° 13 - 30.24 30.24 8 -RA BKN007 OVC022 1-hr Precip Total: 0.03"
2018-09-23 21:27 62 61 - 96 40° 10 - 30.24 - 9 -RA SCT007 OVC022 1-hr Precip Total: 0.02"
2018-09-23 20:54 62 61 - 96 40° 10 - 30.23 30.23 6 -RA BR BKN007 BKN021 OVC043 1-hr Precip Total: 0.21"
2018-09-23 19:54 61 61 - 100 30° 6 - 30.22 30.22 4 RA BR BKN009 OVC018 1-hr Precip Total: 0.07"
6-hr Precip Total (8pm): 0.12"
6-hr Min Temp (8pm): 61.0°F
6-hr Max Temp (8pm): 63.0°F
2018-09-23 19:09 61 61 - 100 40° 6 - 30.21 - 4 -RA BR FEW005 SCT021 OVC030 1-hr Precip Total: 0.02"
2018-09-23 18:54 61 61 - 100 30° 8 - 30.21 30.20 2 -RA BR FEW007 OVC021 1-hr Precip Total: 0.01"
2018-09-23 18:28 61 60 - 96 20° 6 - 30.21 - 2 -RA BR SCT007 OVC022 1-hr Precip Total: Trace
2018-09-23 17:54 61 60 - 96 10° 6 - 30.21 30.21 8 -RA SCT008 BKN021 OVC026 1-hr Precip Total: 0.01"

Support USWX by starting your Amazon purchase here.